Time;durP1;ratioP1;P1;durP2;ratioP2;P2;SDS_P1;SDS_P2;PMS_P1;PMS_P2;Temp;Humidity;BMP_temperature;BMP_pressure;BME280_temperature;BME280_humidity;BME280_pressure;Samples;Min_cycle;Max_cycle;Signal;HPM_P1;HPM_P2
2022/09/20 00:01:17;;;;;;;10.00;4.70;;;;;;;11.01;96.21;102193.44;5029577;28;20037;-80
2022/09/20 00:03:45;;;;;;;9.18;4.75;;;;;;;11.08;96.50;102205.41;5017269;28;20816;-81
2022/09/20 00:06:14;;;;;;;8.88;4.85;;;;;;;11.10;96.53;102208.00;5030254;28;20029;-80
2022/09/20 00:08:40;;;;;;;10.95;4.95;;;;;;;11.16;96.43;102220.06;5025669;28;20033;-80
2022/09/20 00:11:12;;;;;;;9.30;4.90;;;;;;;11.14;96.28;102220.19;5025559;28;20025;-80
2022/09/20 00:13:38;;;;;;;12.43;4.78;;;;;;;11.10;96.90;102213.31;5034032;28;20064;-80
2022/09/20 00:16:16;;;;;;;10.63;4.70;;;;;;;11.11;97.15;102204.41;5037246;28;20110;-80
2022/09/20 00:18:41;;;;;;;15.85;5.13;;;;;;;11.14;97.06;102214.00;5037228;28;20121;-80
2022/09/20 00:21:15;;;;;;;11.15;5.05;;;;;;;11.05;97.04;102199.44;5029408;28;20017;-81
2022/09/20 00:23:41;;;;;;;10.50;5.00;;;;;;;11.14;96.60;102206.00;5030071;28;20388;-80
2022/09/20 00:26:06;;;;;;;10.27;5.40;;;;;;;11.14;96.41;102206.00;5019995;28;20034;-81
2022/09/20 00:28:32;;;;;;;8.60;5.05;;;;;;;11.07;96.36;102194.88;5020583;28;20308;-80
2022/09/20 00:30:57;;;;;;;10.23;4.60;;;;;;;11.08;96.01;102202.75;5027249;28;20512;-81
2022/09/20 00:35:06;;;;;;;8.15;4.88;;;;;;;11.08;96.45;102197.44;5026448;28;20030;-80
2022/09/20 00:36:09;;;;;;;9.43;5.18;;;;;;;11.05;96.39;102204.75;5021804;28;20149;-81
2022/09/20 00:38:34;;;;;;;9.55;4.85;;;;;;;11.08;96.13;102208.06;5021719;28;20481;-81
2022/09/20 00:40:59;;;;;;;8.37;4.97;;;;;;;11.09;96.04;102211.59;5024125;28;20037;-80
2022/09/20 00:43:40;;;;;;;11.93;5.13;;;;;;;10.99;96.48;102197.97;5014028;28;20379;-81
2022/09/20 00:46:19;;;;;;;11.32;5.20;;;;;;;11.07;96.63;102216.13;5023998;28;20366;-81
2022/09/20 00:48:45;;;;;;;9.52;4.45;;;;;;;11.04;96.16;102209.22;5018622;28;20025;-81
2022/09/20 00:51:14;;;;;;;8.50;4.82;;;;;;;10.99;96.42;102210.41;5032864;28;20024;-80
2022/09/20 00:53:44;;;;;;;8.18;4.75;;;;;;;10.99;95.75;102208.63;5033323;28;20127;-81
2022/09/20 00:56:16;;;;;;;9.45;5.00;;;;;;;10.97;95.36;102210.47;5034055;28;20039;-80
2022/09/20 00:58:47;;;;;;;8.50;4.50;;;;;;;10.94;95.81;102202.69;5020105;28;20437;-81
2022/09/20 01:01:12;;;;;;;9.73;4.60;;;;;;;10.97;95.61;102212.28;5024257;28;20029;-81
2022/09/20 01:03:40;;;;;;;9.15;4.88;;;;;;;10.89;95.39;102213.59;5028424;28;20034;-79
2022/09/20 01:06:10;;;;;;;8.93;4.90;;;;;;;10.88;95.79;102205.69;5026467;28;20028;-80
2022/09/20 01:08:37;;;;;;;10.15;5.07;;;;;;;10.84;95.79;102215.66;5018968;28;20026;-79
2022/09/20 01:11:03;;;;;;;11.57;4.65;;;;;;;10.82;95.25;102209.53;5029479;28;20027;-79
2022/09/20 01:13:28;;;;;;;8.73;4.05;;;;;;;10.76;95.10;102209.03;5026398;28;20104;-80
2022/09/20 01:15:57;;;;;;;11.85;4.55;;;;;;;10.72;95.35;102200.38;5029530;28;20056;-79
2022/09/20 01:18:24;;;;;;;9.43;4.53;;;;;;;10.73;95.48;102208.25;5030306;28;20452;-81
2022/09/20 01:20:49;;;;;;;9.68;4.25;;;;;;;10.72;95.70;102205.69;5025394;28;20108;-81
2022/09/20 01:23:55;;;;;;;9.65;4.55;;;;;;;10.74;95.76;102206.44;5027503;28;20461;-81
2022/09/20 01:26:47;;;;;;;11.32;4.72;;;;;;;10.72;96.13;102198.59;5029229;28;20432;-80
2022/09/20 01:29:28;;;;;;;8.18;4.22;;;;;;;10.74;96.12;102198.47;5035645;28;20044;-81
2022/09/20 01:31:58;;;;;;;11.70;5.13;;;;;;;10.69;95.80;102206.72;5022553;28;20029;-81
2022/09/20 01:34:32;;;;;;;8.07;4.28;;;;;;;10.67;95.78;102205.94;5034677;28;20033;-80
2022/09/20 01:37:25;;;;;;;10.55;4.97;;;;;;;10.71;96.65;102217.28;5025293;28;20349;-80
2022/09/20 01:40:02;;;;;;;11.80;4.63;;;;;;;10.69;97.26;102209.38;5030878;28;20480;-81
2022/09/20 01:42:37;;;;;;;11.85;4.15;;;;;;;10.66;96.87;102201.56;5035239;28;20053;-80
2022/09/20 01:45:19;;;;;;;11.82;4.50;;;;;;;10.69;97.08;102205.84;5033679;28;20100;-80
2022/09/20 01:48:08;;;;;;;9.32;4.30;;;;;;;10.72;97.16;102214.53;5016246;28;20028;-80
2022/09/20 01:50:45;;;;;;;;;;;;;;;10.79;95.40;102214.16;5031780;28;20092;-81
2022/09/20 01:53:45;;;;;;;11.23;4.28;;;;;;;10.74;96.77;102214.41;5028861;28;19921;-79
2022/09/20 01:56:19;;;;;;;10.27;4.70;;;;;;;10.73;97.02;102215.38;5035028;28;20116;-79
2022/09/20 01:59:07;;;;;;;11.48;4.25;;;;;;;10.73;97.35;102210.91;5023229;28;20477;-80
2022/09/20 02:01:50;;;;;;;11.75;5.00;;;;;;;10.72;97.47;102211.88;5045964;28;20030;-80
2022/09/20 02:04:39;;;;;;;9.65;4.45;;;;;;;10.74;98.07;102214.41;5034706;28;20075;-80
2022/09/20 02:07:32;;;;;;;10.20;4.73;;;;;;;10.74;97.27;102214.41;5043266;28;20017;-81
2022/09/20 02:10:18;;;;;;;10.07;4.03;;;;;;;10.71;97.63;102209.31;5028624;28;20384;-80
2022/09/20 02:12:54;;;;;;;7.25;4.07;;;;;;;10.73;97.74;102208.25;5017826;28;20044;-80
2022/09/20 02:15:46;;;;;;;10.50;4.40;;;;;;;10.71;98.28;102209.31;5033489;28;20025;-81
2022/09/20 02:18:56;;;;;;;11.35;4.63;;;;;;;10.74;98.11;102210.00;5022366;28;20024;-81
2022/09/20 02:21:57;;;;;;;12.25;4.68;;;;;;;10.75;97.95;102213.50;5033773;28;20045;-81
2022/09/20 02:24:28;;;;;;;8.93;4.50;;;;;;;10.74;97.60;102207.31;5031771;28;20024;-81
2022/09/20 02:27:06;;;;;;;11.13;4.45;;;;;;;10.76;97.60;102209.03;5027879;28;20418;-80
2022/09/20 02:29:45;;;;;;;13.10;4.82;;;;;;;10.75;97.75;102208.19;5034393;28;20030;-81
2022/09/20 02:32:40;;;;;;;9.10;4.30;;;;;;;10.75;97.78;102202.84;5017025;28;20034;-81
2022/09/20 02:35:29;;;;;;;7.95;4.20;;;;;;;10.78;97.63;102205.34;5029650;28;20065;-81
2022/09/20 02:38:10;;;;;;;;;;;;;;;10.85;96.25;102197.91;5026182;28;20041;-81
2022/09/20 02:41:08;;;;;;;7.63;4.38;;;;;;;10.78;97.19;102199.19;5035965;28;20475;-80
2022/09/20 02:43:50;;;;;;;9.57;4.38;;;;;;;10.76;97.95;102199.28;5033135;28;20029;-81
2022/09/20 02:46:40;;;;;;;10.52;4.50;;;;;;;10.76;97.68;102209.91;5028553;28;20026;-81
2022/09/20 02:49:37;;;;;;;10.27;4.97;;;;;;;10.79;97.92;102215.06;5033202;28;20159;-81
2022/09/20 02:52:13;;;;;;;10.38;5.22;;;;;;;10.74;98.35;102207.31;5027627;28;20116;-80
2022/09/20 02:54:56;;;;;;;12.50;4.68;;;;;;;10.66;98.56;102196.25;5014767;28;20065;-80
2022/09/20 02:57:34;;;;;;;8.75;4.38;;;;;;;10.79;98.64;102214.16;5027233;28;20029;-80
2022/09/20 03:00:15;;;;;;;9.60;5.32;;;;;;;10.77;98.94;102198.31;5024238;28;20037;-80
2022/09/20 03:02:58;;;;;;;11.57;4.97;;;;;;;10.82;98.88;102206.03;5022324;28;20026;-80
2022/09/20 03:05:42;;;;;;;12.30;5.20;;;;;;;10.76;98.74;102183.31;5027763;28;20377;-80
2022/09/20 03:08:34;;;;;;;12.05;5.07;;;;;;;10.84;98.62;102191.72;5028791;28;20499;-80
2022/09/20 03:11:09;;;;;;;13.25;5.30;;;;;;;10.83;98.75;102190.00;5031223;28;20472;-80
2022/09/20 03:13:49;;;;;;;9.85;4.72;;;;;;;10.86;98.96;102194.31;5024028;28;20088;-80
2022/09/20 03:16:36;;;;;;;9.38;4.70;;;;;;;10.87;98.42;102198.66;5025653;28;20025;-81
2022/09/20 03:19:25;;;;;;;12.80;4.70;;;;;;;10.88;98.29;102203.88;5038575;28;20033;-80
2022/09/20 03:22:06;;;;;;;12.10;5.28;;;;;;;10.83;98.95;102200.63;5027921;28;20022;-80
2022/09/20 03:24:51;;;;;;;9.38;4.80;;;;;;;10.88;99.06;102201.22;5036231;28;20034;-81
2022/09/20 03:27:23;;;;;;;10.30;4.70;;;;;;;10.86;98.49;102199.63;5031026;28;20026;-80
2022/09/20 03:30:14;;;;;;;10.25;5.10;;;;;;;10.89;98.32;102199.41;5027332;28;20029;-80
2022/09/20 03:32:49;;;;;;;13.25;5.30;;;;;;;10.89;98.22;102202.97;5019095;28;20026;-81
2022/09/20 03:35:44;;;;;;;10.13;5.03;;;;;;;10.90;98.83;102207.31;5024873;28;20025;-81
2022/09/20 03:38:47;;;;;;;13.52;5.57;;;;;;;10.90;99.09;102212.63;5034985;28;20033;-81
2022/09/20 03:41:30;;;;;;;7.15;5.50;;;;;;;10.89;99.19;102205.63;5034224;28;20036;-81
2022/09/20 03:44:04;;;;;;;10.02;5.65;;;;;;;10.89;98.95;102205.63;5028626;28;20044;-81
2022/09/20 03:46:43;;;;;;;9.35;5.05;;;;;;;10.90;99.22;102215.28;5029589;28;20057;-81
2022/09/20 03:49:26;;;;;;;11.60;5.80;;;;;;;10.91;99.31;102205.53;5032297;28;20017;-81
2022/09/20 03:52:16;;;;;;;12.13;5.82;;;;;;;10.91;99.50;102217.00;5027600;28;20057;-81
2022/09/20 03:55:14;;;;;;;10.05;6.22;;;;;;;10.95;99.59;102208.88;5024439;28;20401;-81
2022/09/20 03:57:51;;;;;;;11.55;5.80;;;;;;;10.93;99.10;102207.16;5025830;28;20554;-81
2022/09/20 04:00:23;;;;;;;13.13;6.05;;;;;;;10.90;99.74;102204.66;5029607;28;20128;-81
2022/09/20 04:03:27;;;;;;;12.13;6.40;;;;;;;10.96;99.78;102202.59;5025307;28;20049;-81
2022/09/20 04:06:20;;;;;;;11.05;6.25;;;;;;;10.96;99.68;102206.13;5023377;28;20037;-81
2022/09/20 04:09:29;;;;;;;10.90;5.90;;;;;;;10.96;99.74;102202.59;5027036;28;20021;-81
2022/09/20 04:12:10;;;;;;;9.57;5.50;;;;;;;10.77;99.42;102178.88;5034073;28;20037;-81
2022/09/20 04:14:53;;;;;;;13.43;5.60;;;;;;;10.97;99.66;102205.16;5033334;28;20025;-81
2022/09/20 04:17:18;;;;;;;12.18;6.13;;;;;;;10.96;99.35;102194.63;5029732;28;20030;-81
2022/09/20 04:20:00;;;;;;;13.50;5.93;;;;;;;10.97;99.89;102188.38;5038649;28;20525;-81
2022/09/20 04:22:28;;;;;;;8.65;5.70;;;;;;;10.87;99.94;102169.41;5026228;28;20264;-81
2022/09/20 04:25:03;;;;;;;7.38;5.35;;;;;;;10.93;99.82;102187.69;5029440;28;20041;-81
2022/09/20 04:27:47;;;;;;;9.45;5.40;;;;;;;10.94;99.33;102186.72;5030994;28;20046;-81
2022/09/20 04:30:29;;;;;;;11.75;5.25;;;;;;;10.92;99.75;102199.25;5020290;28;20058;-81
2022/09/20 04:33:12;;;;;;;12.23;5.75;;;;;;;10.93;99.84;102191.19;5028161;28;20022;-81
2022/09/20 04:38:51;;;;;;;;;;;;;;;11.04;98.34;102192.38;5026263;28;20044;-81
2022/09/20 04:41:36;;;;;;;10.57;5.72;;;;;;;10.95;99.37;102191.09;5027826;28;19909;-81
2022/09/20 04:44:05;;;;;;;11.85;5.95;;;;;;;10.93;99.24;102193.84;5024856;28;20022;-81
2022/09/20 04:46:51;;;;;;;12.70;5.70;;;;;;;10.93;99.22;102196.50;5019989;28;20026;-81
2022/09/20 04:50:06;;;;;;;11.70;5.53;;;;;;;10.91;99.87;102189.59;5016616;28;20273;-81
2022/09/20 04:53:05;;;;;;;12.48;5.82;;;;;;;10.95;99.63;102201.75;5025850;28;20049;-81
2022/09/20 04:55:44;;;;;;;;;;;;;;;11.01;98.41;102213.84;5027901;28;20053;-81
2022/09/20 04:58:35;;;;;;;7.22;5.10;;;;;;;10.90;99.52;102199.34;5016456;28;19976;-81
2022/09/20 05:01:15;;;;;;;8.43;5.35;;;;;;;10.93;99.27;102206.28;5032267;28;20078;-81
2022/09/20 05:04:16;;;;;;;7.65;5.35;;;;;;;10.93;99.06;102209.81;5034733;28;20029;-82
2022/09/20 05:06:44;;;;;;;12.90;5.00;;;;;;;10.90;98.82;102203.81;5020810;28;20382;-81
2022/09/20 05:09:38;;;;;;;9.88;5.32;;;;;;;10.93;98.71;102209.81;5031084;28;20026;-81
2022/09/20 05:12:18;;;;;;;6.85;5.00;;;;;;;10.90;98.49;102207.31;5031996;28;20535;-82
2022/09/20 05:14:52;;;;;;;9.63;5.13;;;;;;;10.89;98.72;102210.06;5017762;28;20042;-81
2022/09/20 05:17:52;;;;;;;7.75;4.90;;;;;;;10.85;98.80;102214.69;5039705;28;20431;-80
2022/09/20 05:20:33;;;;;;;8.30;5.10;;;;;;;10.89;98.72;102218.03;5037755;28;20078;-80
2022/09/20 05:23:33;;;;;;;6.80;4.90;;;;;;;10.87;97.85;102218.13;5030360;28;20057;-80
2022/09/20 05:26:10;;;;;;;10.63;4.63;;;;;;;10.81;97.79;102213.16;5022523;28;20048;-81
2022/09/20 05:28:53;;;;;;;9.57;4.72;;;;;;;10.84;97.87;102220.97;5021516;28;20541;-81
2022/09/20 05:32:01;;;;;;;8.40;4.85;;;;;;;10.82;97.99;102222.81;5031720;28;20026;-81
2022/09/20 05:34:52;;;;;;;8.15;4.80;;;;;;;10.86;97.82;102235.03;4998231;28;20048;-81
2022/09/20 05:37:43;;;;;;;6.55;5.13;;;;;;;10.84;97.87;102239.56;5038441;28;20026;-80
2022/09/20 05:40:30;;;;;;;8.10;5.15;;;;;;;10.83;97.58;102248.47;5022042;28;20078;-80
2022/09/20 05:43:10;;;;;;;11.77;4.97;;;;;;;10.74;98.22;102236.56;5035941;28;20030;-81
2022/09/20 05:45:47;;;;;;;8.45;5.10;;;;;;;10.82;98.66;102252.06;5022783;28;20192;-81
2022/09/20 05:48:18;;;;;;;9.57;5.50;;;;;;;10.80;99.30;102250.44;5029149;28;20108;-79
2022/09/20 05:51:08;;;;;;;9.45;5.40;;;;;;;10.83;99.42;102248.47;5035076;28;20029;-80
2022/09/20 05:53:59;;;;;;;9.50;5.50;;;;;;;10.82;99.27;102252.06;5031070;28;20404;-80
2022/09/20 05:56:38;;;;;;;10.40;5.40;;;;;;;10.78;99.42;102241.72;5048726;28;20483;-80
2022/09/20 05:59:12;;;;;;;;;;;;;;;10.91;98.06;102267.53;5033119;28;20084;-80
2022/09/20 06:02:09;;;;;;;8.55;5.00;;;;;;;10.88;99.04;102257.06;5018949;28;19913;-80
2022/09/20 06:04:58;;;;;;;11.32;6.50;;;;;;;10.89;99.53;102256.13;5014298;28;20022;-80
2022/09/20 06:07:54;;;;;;;10.70;6.63;;;;;;;10.90;99.71;102273.75;5033994;28;20455;-81
2022/09/20 06:10:38;;;;;;;9.77;5.53;;;;;;;10.88;99.44;102259.72;5023932;28;20033;-81
2022/09/20 06:13:23;;;;;;;8.57;5.25;;;;;;;10.93;99.66;102273.59;5037069;28;20373;-81
2022/09/20 06:16:06;;;;;;;10.13;5.43;;;;;;;10.93;99.78;102278.06;5027830;28;20465;-81
2022/09/20 06:18:42;;;;;;;11.07;5.28;;;;;;;10.92;99.31;102265.72;5029464;28;20540;-81
2022/09/20 06:21:23;;;;;;;8.43;5.50;;;;;;;10.86;100.00;102258.94;5033090;28;20572;-81
2022/09/20 06:23:56;;;;;;;12.25;5.80;;;;;;;10.88;99.83;102270.34;5039317;28;20026;-81
2022/09/20 06:26:29;;;;;;;9.38;5.65;;;;;;;10.95;100.00;102268.19;5027491;28;20088;-81
2022/09/20 06:29:01;;;;;;;9.70;5.55;;;;;;;10.98;99.31;102272.50;5034238;28;20029;-80
2022/09/20 06:31:27;;;;;;;9.73;5.50;;;;;;;11.01;99.66;102278.50;5035886;28;20033;-80
2022/09/20 06:34:14;;;;;;;8.25;5.75;;;;;;;11.04;100.00;102277.47;5045514;28;20086;-81
2022/09/20 06:42:45;;;;;;;8.50;5.43;;;;;;;11.09;99.50;102286.91;5033768;28;20071;-82
2022/09/20 06:45:10;;;;;;;8.85;5.45;;;;;;;11.09;99.58;102270.09;5045471;28;20061;-80
2022/09/20 06:47:36;;;;;;;9.50;5.32;;;;;;;11.12;99.60;102275.22;5041084;28;20044;-80
2022/09/20 06:50:01;;;;;;;9.98;6.38;;;;;;;11.19;99.53;102279.28;5042941;28;20029;-80
2022/09/20 06:52:27;;;;;;;11.02;6.55;;;;;;;11.22;100.00;102281.75;5040282;28;20076;-81
2022/09/20 06:54:54;;;;;;;10.43;5.90;;;;;;;11.21;99.58;102276.53;5041613;28;20032;-81
2022/09/20 06:57:30;;;;;;;10.50;6.40;;;;;;;11.26;100.00;102285.13;5055628;28;20054;-79
2022/09/20 06:59:56;;;;;;;12.82;8.10;;;;;;;11.25;99.62;102283.38;5041339;28;20029;-80
2022/09/20 07:02:21;;;;;;;13.45;6.57;;;;;;;11.33;99.85;102280.31;5052512;28;20062;-79
2022/09/20 07:04:46;;;;;;;7.70;5.93;;;;;;;11.33;99.13;102277.66;5043018;28;20084;-79
2022/09/20 07:07:17;;;;;;;6.78;6.05;;;;;;;11.40;99.34;102279.84;5039758;28;20055;-79
2022/09/20 07:09:43;;;;;;;9.90;6.22;;;;;;;11.44;100.00;102281.41;5045870;28;20022;-83
2022/09/20 07:12:10;;;;;;;10.02;5.80;;;;;;;11.44;99.05;102273.44;5071791;28;20024;-83
2022/09/20 07:14:36;;;;;;;12.02;5.80;;;;;;;11.52;99.07;102280.94;5060328;28;20029;-83
2022/09/20 07:17:02;;;;;;;10.48;5.82;;;;;;;11.58;98.30;102285.94;5042484;28;20036;-80
2022/09/20 07:19:27;;;;;;;11.55;5.82;;;;;;;11.62;98.99;102284.81;5047913;28;20049;-80
2022/09/20 07:21:53;;;;;;;8.63;5.60;;;;;;;11.67;97.88;102289.84;5031377;28;20932;-80
2022/09/20 07:24:19;;;;;;;8.95;5.80;;;;;;;11.66;97.29;102278.34;5037882;28;20039;-80
2022/09/20 07:27:02;;;;;;;11.27;5.50;;;;;;;11.76;98.07;102284.00;5043042;28;20461;-79
2022/09/20 07:29:28;;;;;;;10.23;5.13;;;;;;;11.78;96.72;102276.78;5041169;28;20022;-80
2022/09/20 07:31:53;;;;;;;10.02;5.03;;;;;;;11.85;97.52;102272.78;5047169;28;20040;-80
2022/09/20 07:34:19;;;;;;;7.53;5.43;;;;;;;11.94;96.67;102274.09;5052114;28;21193;-79
2022/09/20 07:36:48;;;;;;;9.48;5.18;;;;;;;12.03;96.89;102281.53;5041318;28;21481;-80
2022/09/20 07:39:13;;;;;;;12.43;5.07;;;;;;;12.08;96.87;102275.94;5051569;28;20084;-79
2022/09/20 07:41:39;;;;;;;8.73;4.70;;;;;;;12.20;95.91;102285.00;5047631;28;20006;-80
2022/09/20 07:46:52;;;;;;;7.97;5.07;;;;;;;12.36;94.79;102293.78;5054275;28;20048;-79
2022/09/20 07:49:18;;;;;;;8.85;4.55;;;;;;;12.40;94.65;102292.63;5052954;28;20044;-81
2022/09/20 07:51:43;;;;;;;8.93;4.65;;;;;;;12.48;94.87;102297.50;5058169;28;21362;-79
2022/09/20 07:54:09;;;;;;;8.80;4.55;;;;;;;12.58;94.20;102295.97;5050203;28;20101;-78
2022/09/20 07:56:34;;;;;;;8.90;3.95;;;;;;;12.63;94.19;102300.16;5022810;28;20045;-81
2022/09/20 07:58:59;;;;;;;7.97;4.40;;;;;;;12.68;94.64;102298.91;5039272;28;20572;-80
2022/09/20 08:01:25;;;;;;;7.95;4.28;;;;;;;12.73;93.19;102299.47;5049534;28;20039;-80
2022/09/20 08:03:50;;;;;;;8.48;3.92;;;;;;;12.75;92.52;102305.56;5031391;28;20065;-81
2022/09/20 08:06:17;;;;;;;7.53;3.72;;;;;;;12.78;91.38;102308.06;5016170;28;20088;-81
2022/09/20 08:08:43;;;;;;;10.43;4.20;;;;;;;12.83;91.20;102314.91;5033913;28;20025;-81
2022/09/20 08:11:11;;;;;;;8.57;4.07;;;;;;;12.99;91.32;102317.47;5020583;28;20104;-80
2022/09/20 08:13:39;;;;;;;7.03;4.15;;;;;;;13.21;91.00;102316.97;5023748;28;20045;-80
2022/09/20 08:16:09;;;;;;;7.15;4.00;;;;;;;13.42;90.23;102312.94;5034865;28;20076;-81
2022/09/20 08:18:36;;;;;;;11.63;4.38;;;;;;;13.66;89.84;102312.28;5030886;28;20128;-80
2022/09/20 08:21:07;;;;;;;6.60;3.83;;;;;;;13.85;88.55;102301.22;5031298;28;20074;-81
2022/09/20 08:23:37;;;;;;;8.50;3.65;;;;;;;14.02;87.44;102321.44;5044808;28;20078;-81
2022/09/20 08:26:07;;;;;;;8.18;3.22;;;;;;;14.02;86.07;102318.78;5033312;28;20033;-80
2022/09/20 08:28:32;;;;;;;5.93;3.33;;;;;;;14.15;85.95;102321.47;5032217;28;20060;-81
2022/09/20 08:31:07;;;;;;;10.48;3.40;;;;;;;14.12;86.29;102322.56;5033078;28;20025;-81
2022/09/20 08:33:35;;;;;;;8.32;3.22;;;;;;;14.25;83.92;102311.84;5023898;28;20700;-81
2022/09/20 08:36:03;;;;;;;8.45;3.15;;;;;;;14.55;81.94;102319.56;5033518;28;20566;-80
2022/09/20 08:38:30;;;;;;;4.75;2.60;;;;;;;14.73;81.88;102313.94;5034464;28;20025;-80
2022/09/20 08:41:01;;;;;;;6.75;2.70;;;;;;;15.05;80.91;102316.13;5034149;28;20091;-81
2022/09/20 08:43:31;;;;;;;6.47;2.35;;;;;;;15.35;79.17;102321.94;5034004;28;20026;-80
2022/09/20 08:45:58;;;;;;;6.05;2.00;;;;;;;15.45;76.78;102319.41;5034024;28;20049;-80
2022/09/20 08:48:29;;;;;;;6.78;2.08;;;;;;;15.48;74.98;102318.34;5033562;28;20026;-80
2022/09/20 08:50:55;;;;;;;6.65;1.88;;;;;;;15.68;74.90;102317.69;5034053;28;20055;-80
2022/09/20 08:53:20;;;;;;;6.80;2.00;;;;;;;15.82;71.67;102327.44;5031168;28;20069;-80
2022/09/20 08:55:46;;;;;;;3.95;1.70;;;;;;;16.08;72.60;102329.94;5021687;28;20063;-80
2022/09/20 08:58:13;;;;;;;12.07;2.00;;;;;;;16.35;72.37;102321.59;5040309;28;20033;-80
2022/09/20 09:00:39;;;;;;;9.68;1.92;;;;;;;16.56;71.23;102328.94;5035718;28;20016;-80
2022/09/20 09:03:10;;;;;;;9.57;1.58;;;;;;;16.65;68.55;102328.19;5017465;28;20527;-80
2022/09/20 09:05:43;;;;;;;10.05;1.90;;;;;;;16.93;68.56;102320.69;5026935;28;20021;-80
2022/09/20 09:08:17;;;;;;;6.85;1.70;;;;;;;17.17;68.83;102326.75;5041405;28;20132;-80
2022/09/20 09:10:52;;;;;;;8.73;1.52;;;;;;;17.42;67.15;102329.25;5031760;28;20551;-80
2022/09/20 09:13:36;;;;;;;6.93;1.75;;;;;;;17.57;67.20;102326.19;5032299;28;20022;-80
2022/09/20 09:16:09;;;;;;;6.20;1.13;;;;;;;17.80;62.99;102319.84;5042444;28;20056;-80
2022/09/20 09:18:37;;;;;;;9.52;1.67;;;;;;;17.88;61.11;102329.00;5032309;28;20028;-80
2022/09/20 09:21:06;;;;;;;7.20;1.40;;;;;;;17.92;58.40;102326.94;5018440;28;20454;-80
2022/09/20 09:23:40;;;;;;;5.78;1.60;;;;;;;18.17;61.45;102323.00;5048880;28;20025;-80
2022/09/20 09:26:14;;;;;;;7.97;1.60;;;;;;;18.45;60.43;102326.88;5039504;28;20040;-80
2022/09/20 09:28:40;;;;;;;10.10;1.58;;;;;;;18.54;59.42;102321.66;5019912;28;20029;-80
2022/09/20 09:31:24;;;;;;;7.57;1.45;;;;;;;18.63;61.06;102319.00;5047202;28;20026;-80
2022/09/20 09:33:50;;;;;;;7.50;1.75;;;;;;;18.60;58.56;102324.66;5049236;28;20061;-78
2022/09/20 09:36:22;;;;;;;6.03;1.17;;;;;;;18.58;58.57;102323.09;5043822;28;20029;-78
2022/09/20 09:38:48;;;;;;;9.52;1.55;;;;;;;18.41;57.37;102325.41;5038176;28;20036;-79
2022/09/20 09:41:28;;;;;;;5.88;1.27;;;;;;;18.50;60.70;102326.44;5042001;28;20046;-78
2022/09/20 09:44:03;;;;;;;10.07;1.40;;;;;;;18.39;59.36;102331.91;5046188;28;20037;-78
2022/09/20 09:46:33;;;;;;;6.32;1.45;;;;;;;18.29;56.88;102331.84;5044141;28;20030;-79
2022/09/20 09:49:19;;;;;;;5.28;1.27;;;;;;;18.22;60.13;102328.84;5037079;28;20029;-77
2022/09/20 09:52:12;;;;;;;7.82;1.48;;;;;;;18.16;62.38;102333.88;5047941;28;20042;-79
2022/09/20 09:54:43;;;;;;;7.18;1.42;;;;;;;18.03;59.25;102334.06;5052361;28;20042;-79
2022/09/20 09:57:15;;;;;;;9.35;1.55;;;;;;;17.89;60.07;102343.31;5048382;28;20041;-80
2022/09/20 09:59:53;;;;;;;8.98;1.52;;;;;;;17.82;61.22;102332.19;5040647;28;20049;-81
2022/09/20 10:02:41;;;;;;;7.13;1.83;;;;;;;17.72;61.70;102321.34;5045150;28;20495;-80
2022/09/20 10:05:15;;;;;;;6.25;1.17;;;;;;;17.71;61.24;102338.44;5026684;28;20483;-80
2022/09/20 10:07:48;;;;;;;5.97;1.50;;;;;;;17.56;63.06;102326.28;5031910;28;20033;-81
2022/09/20 10:10:42;;;;;;;10.18;1.77;;;;;;;17.44;64.04;102338.06;5034330;28;20034;-81
2022/09/20 10:13:23;;;;;;;8.18;1.75;;;;;;;17.33;63.12;102331.72;5019468;28;20112;-81
2022/09/20 10:16:20;;;;;;;11.95;1.90;;;;;;;17.34;64.74;102337.97;5028153;28;20653;-80
2022/09/20 10:19:05;;;;;;;9.45;2.35;;;;;;;17.18;64.19;102338.34;5039008;28;20068;-80
2022/09/20 10:21:40;;;;;;;7.18;1.55;;;;;;;17.00;62.21;102340.69;5034226;28;20365;-80
2022/09/20 10:24:29;;;;;;;5.80;1.85;;;;;;;16.95;63.46;102343.75;5030933;28;20034;-80
2022/09/20 10:26:59;;;;;;;8.13;1.38;;;;;;;16.77;60.83;102346.03;5034350;28;20049;-79
2022/09/20 10:29:59;;;;;;;6.40;1.60;;;;;;;16.77;62.83;102339.78;5034025;28;20464;-78
2022/09/20 10:32:38;;;;;;;8.23;1.35;;;;;;;16.73;62.21;102341.03;5026378;28;20041;-79
2022/09/20 10:35:22;;;;;;;4.63;1.55;;;;;;;16.67;63.41;102345.06;5029595;28;20055;-80
2022/09/20 10:38:13;;;;;;;5.95;1.35;;;;;;;16.65;65.38;102342.50;5034397;28;20046;-80
2022/09/20 10:43:47;;;;;;;6.13;1.30;;;;;;;16.56;65.81;102343.19;5031461;28;20148;-80
2022/09/20 10:46:36;;;;;;;6.40;1.50;;;;;;;16.58;67.04;102338.56;5030398;28;20045;-79
2022/09/20 10:49:23;;;;;;;4.15;1.30;;;;;;;16.48;65.37;102332.22;5024697;28;20099;-80
2022/09/20 10:52:18;;;;;;;6.00;1.50;;;;;;;16.56;67.85;102334.31;5033882;28;20049;-80
2022/09/20 10:55:14;;;;;;;8.68;1.50;;;;;;;16.60;66.83;102341.13;5032672;28;20048;-79
2022/09/20 10:57:55;;;;;;;4.65;1.40;;;;;;;16.69;64.25;102340.41;5034869;28;20060;-79
2022/09/20 11:00:48;;;;;;;6.50;1.30;;;;;;;17.00;64.67;102348.72;5033053;28;20036;-79
2022/09/20 11:03:51;;;;;;;5.22;1.30;;;;;;;17.30;64.39;102342.75;5035031;28;20048;-79
2022/09/20 11:06:51;;;;;;;8.48;1.60;;;;;;;17.40;63.98;102342.81;5035620;28;20064;-77
2022/09/20 11:09:28;;;;;;;6.50;1.30;;;;;;;17.39;60.91;102341.13;5015832;28;20038;-78
2022/09/20 11:12:02;;;;;;;5.95;1.58;;;;;;;17.55;61.92;102340.69;5048301;28;20084;-78
2022/09/20 11:14:34;;;;;;;5.85;1.48;;;;;;;17.79;60.97;102345.88;5052898;28;20075;-78
2022/09/20 11:17:11;;;;;;;7.55;1.20;;;;;;;17.99;61.60;102346.09;5051355;28;20041;-77
2022/09/20 11:20:01;;;;;;;5.68;1.27;;;;;;;18.16;60.56;102350.88;5047953;28;20029;-77
2022/09/20 11:22:45;;;;;;;9.40;1.30;;;;;;;18.49;57.49;102348.97;5051507;28;20044;-77
2022/09/20 11:25:17;;;;;;;5.30;1.10;;;;;;;18.84;58.72;102347.75;5046573;28;20048;-78
2022/09/20 11:27:49;;;;;;;6.35;1.33;;;;;;;18.91;55.46;102348.91;5046757;28;20059;-77
2022/09/20 11:30:22;;;;;;;4.97;1.25;;;;;;;18.88;56.21;102343.78;5037964;28;20040;-78
2022/09/20 11:33:10;;;;;;;4.32;1.35;;;;;;;18.80;56.94;102344.44;5045634;28;20108;-77
2022/09/20 11:35:45;;;;;;;7.43;1.57;;;;;;;18.69;56.95;102349.91;5045529;28;20039;-77
2022/09/20 11:38:31;;;;;;;5.25;0.98;;;;;;;18.62;57.03;102357.69;5049234;28;20037;-78
2022/09/20 11:41:15;;;;;;;7.63;1.40;;;;;;;18.42;54.47;102364.78;5049559;28;20037;-80
2022/09/20 11:43:43;;;;;;;6.03;1.25;;;;;;;18.08;54.98;102356.88;5048308;28;20040;-78
2022/09/20 11:46:12;;;;;;;5.97;1.40;;;;;;;18.06;54.91;102366.09;5054022;28;20018;-78
2022/09/20 11:48:47;;;;;;;5.38;1.15;;;;;;;17.98;57.36;102364.03;5054346;28;20763;-77
2022/09/20 11:51:50;;;;;;;5.30;1.30;;;;;;;17.88;59.54;102365.78;5054410;28;20033;-78
2022/09/20 11:54:56;;;;;;;4.07;1.27;;;;;;;17.74;59.13;102365.06;5042254;28;20049;-78
2022/09/20 11:57:23;;;;;;;6.95;1.80;;;;;;;17.62;58.46;102367.91;5048505;28;20037;-78
2022/09/20 11:59:55;;;;;;;7.13;1.13;;;;;;;17.61;57.91;102368.91;5046795;28;20036;-77
2022/09/20 12:02:32;;;;;;;6.72;1.42;;;;;;;17.55;56.64;102367.56;5044165;28;20105;-78
2022/09/20 12:05:00;;;;;;;6.97;1.50;;;;;;;17.57;58.07;102366.47;5039912;28;20219;-78
2022/09/20 12:07:35;;;;;;;5.40;1.40;;;;;;;17.51;57.41;102366.97;5041435;28;20034;-78
2022/09/20 12:10:07;;;;;;;5.28;1.23;;;;;;;17.44;57.30;102373.00;5043447;28;20024;-78
2022/09/20 12:12:43;;;;;;;2.80;0.90;;;;;;;17.44;57.87;102367.63;5037523;28;20052;-79
2022/09/20 12:15:30;;;;;;;6.07;1.40;;;;;;;17.37;59.17;102365.41;5044268;28;20029;-77
2022/09/20 12:17:56;;;;;;;4.93;1.20;;;;;;;17.23;58.90;102370.19;5039434;28;20775;-78
2022/09/20 12:20:33;;;;;;;4.95;1.08;;;;;;;17.25;59.40;102373.59;5043714;28;20045;-77
2022/09/20 12:23:39;;;;;;;5.35;1.67;;;;;;;17.30;59.87;102374.09;5040775;28;20060;-78
2022/09/20 12:26:09;;;;;;;3.25;1.30;;;;;;;17.21;58.62;102370.31;5035652;28;20064;-77
2022/09/20 12:28:37;;;;;;;4.88;0.90;;;;;;;17.05;58.73;102364.47;5048481;28;20033;-80